Latest Coastal Weather Observations for King Island Airport

IDT60701

Issued at 1:22 pm EDT Thursday 29 October 2020 (issued every 10 minutes, with the page automatically refreshed every 10 minutes)

About coastal observations | Map of coastal stations | Coastal observations for TAS | Marine services | Other Formats
Station Details ID: 098017 Name: KING ISLAND AIRPORT Lat: -39.88 Lon: 143.89 Height: 35.42 m
Data from the previous 72 hours. | See also: Recent months at King Island Airport
Date/Time
EDT
Wind Sea
Height
m
Swell Vis
km
Cloud Weather Temp
°C
Press
MSL
hPa
Rain since
9am
mm
Dir  Spd
kts
Gust
kts
Height
m
Period
s
Dir
29/01:00pm E 15 21 - - - - 10 Partly cloudy - 17.0 1011.6 0.0
29/12:30pm ENE 15 22 - - - - 10 Partly cloudy - 16.1 1011.9 0.0
29/12:00pm ENE 16 21 - - - - 10 Mostly cloudy - 15.6 1012.1 0.0
29/11:30am ENE 17 22 - - - - 10 Cloudy - 15.1 1012.3 0.0
29/11:00am ENE 14 20 - - - - 10 Cloudy - 15.6 1012.4 0.0
29/10:30am ENE 15 20 - - - - 10 Cloudy - 14.7 1012.7 0.0
29/10:00am ENE 13 17 - - - - 10 Cloudy - 14.0 1013.1 0.0
29/09:30am ENE 13 19 - - - - 10 Cloudy - 13.6 1012.9 0.0
29/09:00am ENE 15 20 - - - - 10 Cloudy - 13.5 1012.9 0.6
29/08:30am ENE 15 21 - - - - 10 Cloudy - 13.5 1012.8 0.6
29/08:00am ENE 13 19 - - - - 10 Cloudy - 13.4 1012.7 0.6
29/07:30am ENE 13 19 - - - - 10 Cloudy - 13.2 1012.6 0.6
29/07:00am ENE 12 16 - - - - 10 Cloudy - 13.1 1012.6 0.6
29/06:30am ENE 13 17 - - - - 10 Cloudy - 13.0 1012.5 0.6
29/06:00am ENE 13 17 - - - - 10 Cloudy - 13.0 1012.3 0.6
29/05:30am ENE 12 17 - - - - 10 Cloudy - 12.9 1012.5 0.6
29/05:00am ENE 13 19 - - - - 10 Cloudy - 12.9 1012.6 0.6
29/04:30am ENE 14 20 - - - - 10 Cloudy - 12.9 1012.7 0.6
29/04:00am ENE 14 20 - - - - 10 Cloudy - 12.9 1013.1 0.6
29/03:30am ENE 15 23 - - - - 10 Cloudy - 13.0 1013.5 0.6
29/03:00am ENE 15 20 - - - - 10 Cloudy - 13.0 1013.8 0.6
29/02:30am ENE 14 19 - - - - 10 Cloudy - 13.0 1014.5 0.6
29/02:00am ENE 15 20 - - - - 10 Cloudy - 12.9 1014.8 0.6
29/01:30am ENE 14 20 - - - - 10 Cloudy - 13.0 1015.4 0.6
29/01:00am ENE 14 19 - - - - 10 Cloudy - 12.9 1015.8 0.6
29/12:30am ENE 15 21 - - - - 10 Cloudy - 12.9 1016.2 0.6
29/12:00am ENE 14 20 - - - - 10 Cloudy - 12.9 1016.4 0.6
 
Date/Time
EDT
Wind Sea
Height
m
Swell Vis
km
Cloud Weather Temp
°C
Press
MSL
hPa
Rain since
9am
mm
Dir  Spd
kts
Gust
kts
Height
m
Period
s
Dir
28/11:30pm ENE 15 22 - - - - 10 Cloudy - 12.8 1016.5 0.6
28/11:00pm E 17 24 - - - - 10 Cloudy - 12.9 1016.6 0.6
28/10:34pm E 17 27 - - - - 10 Cloudy - 12.9 1016.9 0.6
28/10:30pm E 17 25 - - - - 10 Cloudy - 12.9 1016.9 0.6
28/10:00pm E 15 21 - - - - 10 Cloudy - 12.8 1017.3 0.6
28/09:30pm E 16 23 - - - - 10 Cloudy - 12.8 1017.3 0.6
28/09:00pm E 17 22 - - - - 10 Cloudy - 12.8 1017.4 0.6
28/08:30pm E 17 24 - - - - 10 Cloudy - 12.7 1017.3 0.6
28/08:00pm E 15 20 - - - - 10 Cloudy - 12.8 1017.4 0.6
28/07:30pm E 17 23 - - - - 10 Cloudy - 12.9 1017.3 0.6
28/07:00pm E 16 23 - - - - 10 Cloudy - 13.1 1017.4 0.6
28/06:30pm E 18 27 - - - - 10 Cloudy - 13.2 1017.4 0.6
28/06:28pm E 17 27 - - - - 10 Cloudy - 13.3 1017.4 0.6
28/06:00pm E 19 27 - - - - 10 Mostly cloudy - 13.4 1017.6 0.6
28/05:41pm E 20 30 - - - - 10 Cloudy - 13.7 1017.5 0.6
28/05:30pm E 17 24 - - - - 10 Cloudy - 13.6 1017.6 0.6
28/05:00pm E 19 27 - - - - 10 Cloudy - 13.4 1018.0 0.6
28/04:30pm E 20 27 - - - - 10 Cloudy - 13.9 1018.0 0.6
28/04:12pm E 17 25 - - - - 10 Cloudy - 13.9 1018.2 0.6
28/04:00pm E 19 26 - - - - 10 Cloudy - 14.1 1018.4 0.6
28/03:30pm E 18 26 - - - - 10 Partly cloudy - 14.4 1018.9 0.6
28/03:00pm E 19 27 - - - - 10 Cloudy - 14.6 1019.3 0.6
28/02:54pm E 18 24 - - - - 10 Partly cloudy - 14.6 1019.4 0.6
28/02:30pm E 20 27 - - - - 10 Cloudy - 14.2 1019.6 0.6
28/02:04pm E 18 28 - - - - 10 Cloudy - 14.8 1019.8 0.6
28/02:00pm E 19 28 - - - - 10 Cloudy - 14.1 1019.8 0.6
28/01:56pm E 18 28 - - - - 10 Cloudy - 14.2 1019.8 0.6
28/01:30pm E 18 25 - - - - 10 Cloudy - 14.6 1020.0 0.6
28/01:00pm E 22 30 - - - - 10 Partly cloudy - 14.2 1020.4 0.6
28/12:45pm E 18 28 - - - - 10 Cloudy - 14.6 1020.8 0.6
28/12:30pm E 20 27 - - - - 10 Partly cloudy - 14.1 1020.9 0.6
28/12:00pm E 22 28 - - - - 10 Cloudy - 13.7 1021.6 0.6
28/11:30am E 20 27 - - - - 10 Partly cloudy - 14.8 1021.9 0.6
28/11:03am E 17 23 - - - - 8 Partly cloudy - 13.4 1022.0 0.6
28/11:02am E 17 24 - - - - 9 Partly cloudy - 13.3 1022.0 0.6
28/11:00am E 18 24 - - - - 10 Partly cloudy - 13.4 1022.0 0.6
28/10:35am E 16 21 - - - - 10 Partly cloudy - 13.8 1022.2 0.6
28/10:30am E 17 21 - - - - 9 Partly cloudy - 13.0 1022.2 0.4
28/10:18am E 16 20 - - - - 5 Partly cloudy - 12.6 1022.3 0.4
28/10:00am E 17 21 - - - - 10 Partly cloudy - 12.6 1022.4 0.4
28/09:50am E 17 22 - - - - 7 Cloudy - 12.5 1022.4 0.2
28/09:30am E 15 20 - - - - 6 Partly cloudy - 12.5 1022.5 0.2
28/09:21am E 16 23 - - - - 5 Partly cloudy - 12.7 1022.5 0.2
28/09:00am E 19 27 - - - - 10 Cloudy Showers 12.6 1022.5 0.0
28/08:30am E 19 26 - - - - 10 Partly cloudy - 12.5 1022.6 0.0
28/08:00am E 17 23 - - - - 10 Partly cloudy - 12.5 1022.5 0.0
28/07:30am E 17 23 - - - - 10 Partly cloudy - 12.0 1022.5 0.0
28/07:06am E 17 28 - - - - 10 Cloudy - 11.7 1022.3 0.0
28/07:00am E 16 22 - - - - 10 Cloudy - 11.7 1022.3 0.0
28/06:44am E 17 27 - - - - 10 Partly cloudy - 11.5 1022.3 0.0
28/06:30am E 17 24 - - - - 10 Partly cloudy - 11.7 1022.2 0.0
28/06:29am E 17 24 - - - - 10 Partly cloudy - 11.7 1022.2 0.0
28/06:20am E 17 27 - - - - 10 Partly cloudy - 11.6 1022.2 0.0
28/06:02am E 17 24 - - - - 10 Partly cloudy - 11.7 1022.0 0.0
28/06:00am E 17 22 - - - - 10 Cloudy - 11.6 1022.0 0.0
28/05:35am E 19 28 - - - - 10 Partly cloudy - 11.7 1022.0 0.0
28/05:30am E 18 26 - - - - 10 Partly cloudy - 11.8 1022.0 0.0
28/05:24am E 18 26 - - - - 10 Partly cloudy - 11.8 1022.0 0.0
28/05:00am E 18 24 - - - - 9 Cloudy - 11.5 1022.0 0.0
28/04:47am E 19 27 - - - - 10 Cloudy - 11.7 1022.0 0.0
28/04:30am E 17 23 - - - - 10 Partly cloudy - 11.8 1022.1 0.0
28/04:00am E 15 22 - - - - 10 Cloudy - 11.7 1022.3 0.0
28/03:42am E 16 26 - - - - 10 Cloudy - 11.7 1022.3 0.0
28/03:30am E 19 25 - - - - 10 Cloudy - 11.8 1022.3 0.0
28/03:02am E 16 26 - - - - 10 Partly cloudy - 11.8 1022.6 0.0
28/03:00am E 16 24 - - - - 10 Cloudy - 11.8 1022.7 0.0
28/02:30am E 17 23 - - - - 10 Partly cloudy - 11.6 1023.0 0.0
28/02:00am E 15 20 - - - - 10 Partly cloudy - 11.3 1023.6 0.0
28/01:30am E 17 21 - - - - 10 Partly cloudy - 11.4 1024.0 0.0
28/01:00am E 17 25 - - - - 10 Partly cloudy - 11.8 1024.5 0.0
28/12:30am E 15 23 - - - - 10 Partly cloudy - 12.1 1024.9 0.0
28/12:00am E 14 19 - - - - 10 Cloudy - 12.0 1025.0 0.0
 
Date/Time
EDT
Wind Sea
Height
m
Swell Vis
km
Cloud Weather Temp
°C
Press
MSL
hPa
Rain since
9am
mm
Dir  Spd
kts
Gust
kts
Height
m
Period
s
Dir
27/11:30pm E 16 23 - - - - 10 Partly cloudy - 11.8 1025.1 0.0
27/11:00pm E 16 23 - - - - 10 Partly cloudy - 11.7 1025.5 0.0
27/10:30pm E 17 25 - - - - 10 Partly cloudy - 11.7 1025.3 0.0
27/10:00pm E 17 23 - - - - 10 Partly cloudy - 11.6 1025.2 0.0
27/09:30pm E 18 26 - - - - 10 - - 11.5 1025.4 0.0
27/09:00pm E 19 26 - - - - 10 Partly cloudy - 11.5 1025.1 0.0
27/08:30pm E 20 28 - - - - 10 - - 11.8 1025.2 0.0
27/08:22pm E 18 28 - - - - 10 - - 11.7 1025.2 0.0
27/08:00pm E 19 25 - - - - 10 - - 11.9 1025.4 0.0
27/07:30pm E 19 27 - - - - 10 - - 12.1 1025.3 0.0
27/07:19pm E 19 29 - - - - 10 - - 12.2 1025.2 0.0
27/07:00pm E 21 29 - - - - 10 - - 12.6 1025.0 0.0
27/06:30pm E 21 29 - - - - 10 Partly cloudy - 12.6 1024.9 0.0
27/06:11pm E 23 33 - - - - 10 Partly cloudy - 12.9 1024.9 0.0
27/06:00pm E 24 32 - - - - 10 Mostly clear - 13.3 1024.9 0.0
27/05:30pm E 25 35 - - - - 10 Partly cloudy - 13.3 1024.9 0.0
27/05:28pm E 25 35 - - - - 10 Partly cloudy - 13.6 1024.9 0.0
27/05:00pm E 25 33 - - - - 10 Partly cloudy - 13.8 1025.0 0.0
27/04:30pm E 25 33 - - - - 10 Partly cloudy - 14.8 1024.9 0.0
27/04:01pm E 22 32 - - - - 10 Partly cloudy - 14.2 1025.0 0.0
27/04:00pm E 22 31 - - - - 10 Partly cloudy - 14.6 1025.1 0.0
27/03:34pm E 23 33 - - - - 10 Partly cloudy - 15.1 1025.2 0.0
27/03:30pm E 25 33 - - - - 10 Partly cloudy - 14.4 1025.3 0.0
27/03:00pm E 24 35 - - - - 10 Cloudy - 13.9 1025.6 0.0
27/02:31pm E 25 36 - - - - 10 Partly cloudy - 14.2 1025.9 0.0
27/02:30pm E 25 33 - - - - 10 Partly cloudy - 14.5 1026.0 0.0
27/02:00pm E 22 34 - - - - 10 Partly cloudy - 13.7 1026.3 0.0
27/01:46pm E 23 33 - - - - 10 Partly cloudy - 14.0 1026.3 0.0
27/01:30pm E 24 33 - - - - 10 Partly cloudy - 14.1 1026.4 0.0
27/01:00pm E 23 37 - - - - 10 Partly cloudy - 13.9 1026.6 0.0
27/12:30pm E 25 35 - - - - 10 Cloudy - 13.6 1026.9 0.0
27/12:12pm ESE 21 31 - - - - 10 Partly cloudy - 13.9 1027.2 0.0
27/12:00pm E 23 32 - - - - 10 Cloudy - 13.8 1027.2 0.0
27/11:49am E 22 32 - - - - 10 Partly cloudy - 13.9 1027.2 0.0
27/11:30am E 21 28 - - - - 10 Partly cloudy - 13.4 1027.4 0.0
27/11:00am E 23 29 - - - - 10 Partly cloudy - 13.1 1027.5 0.0
27/10:32am ESE 21 31 - - - - 10 Partly cloudy - 13.9 1027.7 0.0
27/10:30am ESE 22 31 - - - - 10 Partly cloudy - 13.2 1027.6 0.0
27/10:06am E 19 29 - - - - 10 Partly cloudy - 13.1 1027.7 0.0
27/10:00am E 20 29 - - - - 10 Partly cloudy - 13.0 1027.8 0.0
27/09:30am ESE 22 29 - - - - 10 Partly cloudy - 13.9 1027.8 0.0
27/09:01am E 21 31 - - - - 10 Partly cloudy - 13.2 1027.7 0.0
27/09:00am E 22 31 - - - - 10 Cloudy - 13.2 1027.7 0.0
27/08:57am E 21 31 - - - - 10 Partly cloudy - 13.3 1027.7 0.0
27/08:30am E 22 28 - - - - 10 Partly cloudy - 12.8 1027.6 0.0
27/08:00am E 19 25 - - - - 10 Partly cloudy - 12.2 1027.6 0.0
27/07:50am ESE 18 28 - - - - 10 Partly cloudy - 12.2 1027.5 0.0
27/07:30am ESE 15 24 - - - - 10 Partly cloudy - 11.4 1027.6 0.0
27/07:00am E 17 25 - - - - 10 Partly cloudy - 11.0 1027.4 0.0
27/06:30am E 16 22 - - - - 10 - - 10.6 1027.4 0.0
27/06:00am E 17 23 - - - - 10 - - 10.7 1027.1 0.0
27/05:30am E 15 21 - - - - 10 - - 10.6 1027.1 0.0
27/05:00am E 13 18 - - - - 10 - - 10.4 1027.0 0.0
27/04:30am E 15 20 - - - - 10 - - 10.7 1027.0 0.0
27/04:00am E 14 18 - - - - 10 - - 10.6 1027.2 0.0
27/03:30am E 14 19 - - - - 10 - - 10.6 1027.5 0.0
27/03:00am E 13 21 - - - - 10 - - 10.7 1027.6 0.0
27/02:30am E 14 20 - - - - 10 Partly cloudy - 10.9 1027.8 0.0
27/02:01am E 15 26 - - - - 10 - - 11.0 1027.9 0.0
27/02:00am E 15 21 - - - - 10 - - 11.0 1027.9 0.0
27/01:30am E 15 21 - - - - 10 Partly cloudy - 11.2 1028.2 0.0
27/01:00am E 16 20 - - - - 10 Cloudy - 11.8 1028.4 0.0
27/12:30am E 15 21 - - - - 10 Partly cloudy - 11.2 1028.5 0.0
27/12:00am E 13 21 - - - - 10 Mostly clear - 10.8 1028.7 0.0
 
Date/Time
EDT
Wind Sea
Height
m
Swell Vis
km
Cloud Weather Temp
°C
Press
MSL
hPa
Rain since
9am
mm
Dir  Spd
kts
Gust
kts
Height
m
Period
s
Dir
26/11:30pm E 16 22 - - - - 10 Partly cloudy - 11.2 1028.9 0.0
26/11:00pm E 14 22 - - - - 10 Partly cloudy - 11.0 1029.1 0.0
26/10:30pm E 14 21 - - - - 10 Partly cloudy - 11.4 1029.3 0.0
26/10:00pm E 14 20 - - - - 10 Partly cloudy - 11.2 1029.2 0.0
26/09:30pm E 11 15 - - - - 10 Partly cloudy - 11.0 1029.2 0.0
26/09:00pm E 11 15 - - - - 10 Partly cloudy - 11.1 1029.0 0.0
26/08:30pm ESE 12 16 - - - - 10 Partly cloudy - 10.9 1028.7 0.0
26/08:00pm ESE 12 16 - - - - 10 - - 11.0 1028.5 0.0
26/07:30pm E 15 20 - - - - 10 - - 11.8 1028.2 0.0
26/07:00pm E 17 23 - - - - 10 - - 12.4 1028.1 0.0
26/06:30pm E 18 25 - - - - 10 Partly cloudy - 12.8 1027.9 0.0
26/06:01pm E 21 32 - - - - 10 Partly cloudy - 13.2 1028.1 0.0
26/06:00pm E 21 30 - - - - 10 Mostly clear - 13.3 1028.1 0.0
26/05:30pm ESE 20 27 - - - - 10 Partly cloudy - 13.0 1027.8 0.0
26/05:00pm ESE 21 28 - - - - 10 Partly cloudy - 13.4 1027.7 0.0
26/04:30pm ESE 20 27 - - - - 10 Partly cloudy - 13.7 1027.7 0.0
26/04:00pm ESE 21 27 - - - - 10 Partly cloudy - 14.3 1027.9 0.0
26/03:30pm ESE 20 26 - - - - 10 Partly cloudy - 14.8 1028.2 0.0
26/03:00pm ESE 20 27 - - - - 10 Cloudy - 14.1 1028.4 0.0
26/02:30pm ESE 19 26 - - - - 10 Partly cloudy - 13.9 1028.7 0.0
26/02:00pm ESE 19 23 - - - - 10 Partly cloudy - 13.2 1028.7 0.0
26/01:30pm ESE 17 24 - - - - 10 Partly cloudy - 13.2 1028.9 0.0

Other formats

Comma delimited format used in spreadsheet applications
http://www.bom.gov.au/fwo/IDT60701/IDT60701.94850.axf

JavaScript Object Notation format (JSON) in row-major order
http://www.bom.gov.au/fwo/IDT60701/IDT60701.94850.json

Data quality

Most of these data are generated automatically and are frequently updated. Quality checks on data are not normally performed. It is possible for incorrect values to appear. Refer to information at About Latest Weather Observations and please check the disclaimer before using these data.